Time,TemperatureF,DewpointF,PressureIn,WindDirection,WindDirectionDegrees,WindSpeedMPH,WindSpeedGustMPH,Humidity,HourlyPrecipIn,Conditions,Clouds,dailyrainin,SoftwareType,DateUTC
2013-08-26 00:00:00,59.6,52.0,29.65,North,360,0.0,1.0,76,0.00,,,0.02,Wunderground v.1.15,2013-08-26 06:00:00,
2013-08-26 00:05:00,59.4,51.5,29.65,North,360,0.0,1.0,75,0.00,,,0.02,Wunderground v.1.15,2013-08-26 06:05:00,
2013-08-26 00:15:00,59.2,51.6,29.66,North,360,0.0,1.0,76,0.00,,,0.02,Wunderground v.1.15,2013-08-26 06:15:00,
2013-08-26 00:20:00,59.1,50.8,29.66,North,360,0.0,1.0,74,0.00,,,0.02,Wunderground v.1.15,2013-08-26 06:20:00,
2013-08-26 00:25:00,59.3,50.6,29.66,West,270,0.0,1.0,73,0.00,,,0.02,Wunderground v.1.15,2013-08-26 06:25:00,
2013-08-26 00:30:00,59.5,50.8,29.66,West,270,0.0,1.0,73,0.00,,,0.02,Wunderground v.1.15,2013-08-26 06:30:00,
2013-08-26 00:35:00,59.5,50.8,29.66,West,270,0.0,1.0,73,0.00,,,0.02,Wunderground v.1.15,2013-08-26 06:35:00,
2013-08-26 00:40:00,59.4,50.7,29.66,West,270,0.0,1.0,73,0.00,,,0.02,Wunderground v.1.15,2013-08-26 06:40:00,
2013-08-26 00:45:00,59.3,51.0,29.66,West,271,0.0,1.0,74,0.00,,,0.02,Wunderground v.1.15,2013-08-26 06:45:00,
2013-08-26 00:50:00,59.2,50.5,29.65,WSW,256,0.0,1.0,73,0.00,,,0.02,Wunderground v.1.15,2013-08-26 06:50:00,
2013-08-26 00:55:00,59.3,50.3,29.65,SSW,201,0.0,1.0,72,0.00,,,0.02,Wunderground v.1.15,2013-08-26 06:55:00,
2013-08-26 01:00:00,59.5,50.5,29.65,SSW,209,0.0,1.0,72,0.00,,,0.02,Wunderground v.1.15,2013-08-26 07:00:00,
2013-08-26 01:05:00,59.5,50.1,29.65,SSW,209,0.0,1.0,71,0.00,,,0.00,Wunderground v.1.15,2013-08-26 07:05:00,
2013-08-26 01:10:00,59.4,50.0,29.65,SSW,209,0.0,1.0,71,0.00,,,0.00,Wunderground v.1.15,2013-08-26 07:10:00,
2013-08-26 01:15:00,59.3,49.9,29.65,SSW,209,0.0,1.0,71,0.00,,,0.00,Wunderground v.1.15,2013-08-26 07:15:00,
2013-08-26 01:20:00,59.0,50.4,29.65,SSW,209,0.0,1.0,73,0.00,,,0.00,Wunderground v.1.15,2013-08-26 07:20:00,
2013-08-26 01:25:00,58.6,50.3,29.66,SSW,209,0.0,1.0,74,0.00,,,0.00,Wunderground v.1.15,2013-08-26 07:25:00,
2013-08-26 01:30:00,58.4,49.8,29.66,SSW,209,0.0,1.0,73,0.00,,,0.00,Wunderground v.1.15,2013-08-26 07:30:00,
2013-08-26 01:35:00,58.1,49.9,29.66,SSW,209,0.0,1.0,74,0.00,,,0.00,Wunderground v.1.15,2013-08-26 07:35:00,
2013-08-26 01:40:00,57.9,49.7,29.65,SSW,209,0.0,1.0,74,0.00,,,0.00,Wunderground v.1.15,2013-08-26 07:40:00,
2013-08-26 01:45:00,57.5,50.0,29.65,SSW,209,0.0,1.0,76,0.00,,,0.00,Wunderground v.1.15,2013-08-26 07:45:00,
2013-08-26 01:55:00,56.8,49.7,29.64,SSW,209,0.0,1.0,77,0.00,,,0.00,Wunderground v.1.15,2013-08-26 07:55:00,
2013-08-26 02:00:00,56.8,50.0,29.65,SSW,209,0.0,1.0,78,0.00,,,0.00,Wunderground v.1.15,2013-08-26 08:00:00,
2013-08-26 02:10:00,56.2,50.1,29.65,SSW,209,0.0,1.0,80,0.00,,,0.00,Wunderground v.1.15,2013-08-26 08:10:00,
2013-08-26 02:20:00,55.9,49.5,29.65,SSW,209,0.0,1.0,79,0.00,,,0.00,Wunderground v.1.15,2013-08-26 08:20:00,
2013-08-26 02:25:00,55.6,49.5,29.64,SSW,209,0.0,1.0,80,0.00,,,0.00,Wunderground v.1.15,2013-08-26 08:25:00,
2013-08-26 02:30:00,55.3,49.2,29.64,SSW,209,0.0,1.0,80,0.00,,,0.00,Wunderground v.1.15,2013-08-26 08:30:00,
2013-08-26 02:35:00,54.9,48.8,29.64,SSW,209,0.0,1.0,80,0.00,,,0.00,Wunderground v.1.15,2013-08-26 08:35:00,
2013-08-26 02:40:00,54.6,48.6,29.64,SSW,209,0.0,1.0,80,0.00,,,0.00,Wunderground v.1.15,2013-08-26 08:40:00,
2013-08-26 02:50:00,54.6,48.2,29.64,SSW,209,0.0,1.0,79,0.00,,,0.00,Wunderground v.1.15,2013-08-26 08:50:00,
2013-08-26 02:55:00,54.8,48.1,29.64,SSW,209,0.0,1.0,78,0.00,,,0.00,Wunderground v.1.15,2013-08-26 08:55:00,
2013-08-26 03:00:00,55.1,48.4,29.64,SSW,209,0.0,1.0,78,0.00,,,0.00,Wunderground v.1.15,2013-08-26 09:00:00,
2013-08-26 03:05:00,55.1,48.4,29.64,SSW,209,0.0,1.0,78,0.00,,,0.00,Wunderground v.1.15,2013-08-26 09:05:00,
2013-08-26 03:10:00,54.8,48.7,29.64,SSW,209,0.0,1.0,80,0.00,,,0.00,Wunderground v.1.15,2013-08-26 09:10:00,
2013-08-26 03:15:00,54.5,48.1,29.64,SSW,209,0.0,1.0,79,0.00,,,0.00,Wunderground v.1.15,2013-08-26 09:15:00,
2013-08-26 03:20:00,54.3,48.3,29.64,SSW,209,0.0,1.0,80,0.00,,,0.00,Wunderground v.1.15,2013-08-26 09:20:00,
2013-08-26 03:30:00,54.0,48.0,29.64,SSW,209,0.0,1.0,80,0.00,,,0.00,Wunderground v.1.15,2013-08-26 09:30:00,
2013-08-26 03:35:00,53.9,48.2,29.64,SSW,209,0.0,1.0,81,0.00,,,0.00,Wunderground v.1.15,2013-08-26 09:35:00,
2013-08-26 03:45:00,53.4,48.0,29.64,SSW,209,0.0,1.0,82,0.00,,,0.00,Wunderground v.1.15,2013-08-26 09:45:00,
2013-08-26 03:50:00,53.1,47.7,29.64,SSW,209,0.0,1.0,82,0.00,,,0.00,Wunderground v.1.15,2013-08-26 09:50:00,
2013-08-26 03:55:00,53.0,47.7,29.64,SSW,209,0.0,1.0,82,0.00,,,0.00,Wunderground v.1.15,2013-08-26 09:55:00,
2013-08-26 04:05:00,53.6,47.9,29.64,SSW,209,0.0,1.0,81,0.00,,,0.00,Wunderground v.1.15,2013-08-26 10:05:00,
2013-08-26 04:10:00,54.9,48.8,29.64,SSW,209,0.0,1.0,80,0.00,,,0.00,Wunderground v.1.15,2013-08-26 10:10:00,
2013-08-26 04:15:00,55.8,48.7,29.64,SSW,209,0.0,1.0,77,0.00,,,0.00,Wunderground v.1.15,2013-08-26 10:15:00,
2013-08-26 04:20:00,56.1,49.0,29.64,SSW,209,0.0,1.0,77,0.00,,,0.00,Wunderground v.1.15,2013-08-26 10:20:00,
2013-08-26 04:25:00,56.1,49.0,29.64,SSW,209,0.0,1.0,77,0.00,,,0.00,Wunderground v.1.15,2013-08-26 10:25:00,
2013-08-26 04:30:00,56.4,49.3,29.64,SW,229,0.0,1.0,77,0.00,,,0.00,Wunderground v.1.15,2013-08-26 10:30:00,
2013-08-26 04:35:00,57.0,49.2,29.64,South,191,0.0,3.0,75,0.00,,,0.00,Wunderground v.1.15,2013-08-26 10:35:00,
2013-08-26 04:40:00,57.8,49.6,29.64,East,96,1.0,1.0,74,0.00,,,0.00,Wunderground v.1.15,2013-08-26 10:40:00,
2013-08-26 04:45:00,58.2,49.6,29.64,SSW,211,0.0,1.0,73,0.00,,,0.00,Wunderground v.1.15,2013-08-26 10:45:00,
2013-08-26 04:50:00,58.5,49.5,29.64,ESE,119,0.0,4.0,72,0.00,,,0.00,Wunderground v.1.15,2013-08-26 10:50:00,
2013-08-26 04:55:00,58.7,49.7,29.64,ENE,66,1.0,4.0,72,0.00,,,0.00,Wunderground v.1.15,2013-08-26 10:55:00,
2013-08-26 05:05:00,58.6,49.6,29.64,South,177,0.0,1.0,72,0.00,,,0.00,Wunderground v.1.15,2013-08-26 11:05:00,
2013-08-26 05:10:00,58.5,49.5,29.65,WNW,285,0.0,1.0,72,0.00,,,0.00,Wunderground v.1.15,2013-08-26 11:10:00,
2013-08-26 05:15:00,58.2,49.2,29.65,WNW,285,0.0,1.0,72,0.00,,,0.00,Wunderground v.1.15,2013-08-26 11:15:00,
2013-08-26 05:20:00,58.1,49.5,29.65,NNW,344,0.0,1.0,73,0.00,,,0.00,Wunderground v.1.15,2013-08-26 11:20:00,
2013-08-26 05:25:00,57.8,49.2,29.65,NNW,344,0.0,1.0,73,0.00,,,0.00,Wunderground v.1.15,2013-08-26 11:25:00,
2013-08-26 05:30:00,57.3,49.1,29.65,NNW,344,0.0,1.0,74,0.00,,,0.00,Wunderground v.1.15,2013-08-26 11:30:00,
2013-08-26 05:35:00,56.9,49.1,29.65,SSE,156,0.0,1.0,75,0.00,,,0.00,Wunderground v.1.15,2013-08-26 11:35:00,
2013-08-26 05:40:00,56.5,49.0,29.65,SSE,156,0.0,1.0,76,0.00,,,0.00,Wunderground v.1.15,2013-08-26 11:40:00,
2013-08-26 05:45:00,56.1,49.0,29.65,SSE,159,0.0,1.0,77,0.00,,,0.00,Wunderground v.1.15,2013-08-26 11:45:00,
2013-08-26 05:50:00,56.0,48.9,29.65,South,191,0.0,1.0,77,0.00,,,0.00,Wunderground v.1.15,2013-08-26 11:50:00,
2013-08-26 06:05:00,56.6,48.8,29.65,WSW,253,0.0,1.0,75,0.00,,,0.00,Wunderground v.1.15,2013-08-26 12:05:00,
2013-08-26 06:10:00,56.8,49.0,29.65,WSW,256,0.0,1.0,75,0.00,,,0.00,Wunderground v.1.15,2013-08-26 12:10:00,
2013-08-26 06:15:00,56.7,48.9,29.65,WSW,256,0.0,1.0,75,0.00,,,0.00,Wunderground v.1.15,2013-08-26 12:15:00,
2013-08-26 06:20:00,56.4,48.9,29.65,WSW,256,0.0,1.0,76,0.00,,,0.00,Wunderground v.1.15,2013-08-26 12:20:00,
2013-08-26 06:25:00,55.8,48.7,29.65,WSW,256,0.0,1.0,77,0.00,,,0.00,Wunderground v.1.15,2013-08-26 12:25:00,
2013-08-26 06:35:00,54.4,48.4,29.65,WSW,256,0.0,1.0,80,0.00,,,0.00,Wunderground v.1.15,2013-08-26 12:35:00,
2013-08-26 06:40:00,53.8,48.1,29.65,WSW,256,0.0,1.0,81,0.00,,,0.00,Wunderground v.1.15,2013-08-26 12:40:00,
2013-08-26 06:45:00,53.4,48.4,29.65,WSW,256,0.0,1.0,83,0.00,,,0.00,Wunderground v.1.15,2013-08-26 12:45:00,
2013-08-26 06:50:00,53.1,48.4,29.65,WSW,256,0.0,1.0,84,0.00,,,0.00,Wunderground v.1.15,2013-08-26 12:50:00,
2013-08-26 07:00:00,53.2,48.5,29.65,WSW,256,0.0,1.0,84,0.00,,,0.00,Wunderground v.1.15,2013-08-26 13:00:00,
2013-08-26 07:05:00,53.5,48.1,29.65,WSW,256,0.0,1.0,82,0.00,,,0.00,Wunderground v.1.15,2013-08-26 13:05:00,
2013-08-26 07:10:00,54.2,48.5,29.65,WSW,256,0.0,1.0,81,0.00,,,0.00,Wunderground v.1.15,2013-08-26 13:10:00,
2013-08-26 07:15:00,55.3,48.9,29.65,WSW,256,0.0,1.0,79,0.00,,,0.00,Wunderground v.1.15,2013-08-26 13:15:00,
2013-08-26 07:20:00,56.3,48.8,29.65,WSW,256,0.0,1.0,76,0.00,,,0.00,Wunderground v.1.15,2013-08-26 13:20:00,
2013-08-26 07:25:00,57.3,49.4,29.65,SSE,151,0.0,1.0,75,0.00,,,0.00,Wunderground v.1.15,2013-08-26 13:25:00,
2013-08-26 07:30:00,58.5,49.1,29.65,SSE,151,0.0,1.0,71,0.00,,,0.00,Wunderground v.1.15,2013-08-26 13:30:00,
2013-08-26 07:35:00,60.0,50.2,29.64,SSE,150,0.0,1.0,70,0.00,,,0.00,Wunderground v.1.15,2013-08-26 13:35:00,
2013-08-26 07:40:00,61.4,49.5,29.64,SSE,151,0.0,1.0,65,0.00,,,0.00,Wunderground v.1.15,2013-08-26 13:40:00,
2013-08-26 07:45:00,62.5,49.7,29.64,West,265,0.0,1.0,63,0.00,,,0.00,Wunderground v.1.15,2013-08-26 13:45:00,
2013-08-26 07:50:00,63.4,48.8,29.64,West,266,0.0,1.0,59,0.00,,,0.00,Wunderground v.1.15,2013-08-26 13:50:00,
2013-08-26 07:55:00,63.8,49.2,29.64,West,269,0.0,1.0,59,0.00,,,0.00,Wunderground v.1.15,2013-08-26 13:55:00,
2013-08-26 08:00:00,64.2,49.1,29.64,SW,221,0.0,2.0,58,0.00,,,0.00,Wunderground v.1.15,2013-08-26 14:00:00,
2013-08-26 08:10:00,65.2,49.1,29.64,WNW,300,1.0,2.0,56,0.00,,,0.00,Wunderground v.1.15,2013-08-26 14:10:00,
2013-08-26 08:15:00,65.6,49.0,29.65,South,185,0.0,2.0,55,0.00,,,0.00,Wunderground v.1.15,2013-08-26 14:15:00,
2013-08-26 08:20:00,65.8,48.7,29.64,NW,317,1.0,3.0,54,0.00,,,0.00,Wunderground v.1.15,2013-08-26 14:20:00,
2013-08-26 08:25:00,65.8,49.2,29.64,NNW,336,1.0,3.0,55,0.00,,,0.00,Wunderground v.1.15,2013-08-26 14:25:00,
2013-08-26 08:30:00,66.2,49.1,29.64,South,182,1.0,1.0,54,0.00,,,0.00,Wunderground v.1.15,2013-08-26 14:30:00,
2013-08-26 08:35:00,66.6,48.4,29.64,South,189,0.0,1.0,52,0.00,,,0.00,Wunderground v.1.15,2013-08-26 14:35:00,
2013-08-26 08:40:00,67.3,49.6,29.65,NW,315,0.0,2.0,53,0.00,,,0.00,Wunderground v.1.15,2013-08-26 14:40:00,
2013-08-26 08:45:00,67.9,49.6,29.65,SSE,161,0.0,2.0,52,0.00,,,0.00,Wunderground v.1.15,2013-08-26 14:45:00,
2013-08-26 08:50:00,68.3,48.4,29.65,North,360,1.0,1.0,49,0.00,,,0.00,Wunderground v.1.15,2013-08-26 14:50:00,
2013-08-26 08:55:00,68.5,49.1,29.65,SW,226,1.0,1.0,50,0.00,,,0.00,Wunderground v.1.15,2013-08-26 14:55:00,
2013-08-26 09:00:00,68.8,49.4,29.65,SSW,202,1.0,1.0,50,0.00,,,0.00,Wunderground v.1.15,2013-08-26 15:00:00,
2013-08-26 09:05:00,68.8,49.4,29.65,SSE,155,1.0,1.0,50,0.00,,,0.00,Wunderground v.1.15,2013-08-26 15:05:00,
2013-08-26 09:15:00,68.8,49.4,29.65,SSE,157,1.0,1.0,50,0.00,,,0.00,Wunderground v.1.15,2013-08-26 15:15:00,
2013-08-26 09:20:00,69.2,49.8,29.65,SSE,165,0.0,1.0,50,0.00,,,0.00,Wunderground v.1.15,2013-08-26 15:20:00,
2013-08-26 09:25:00,69.7,49.7,29.64,SW,234,0.0,1.0,49,0.00,,,0.00,Wunderground v.1.15,2013-08-26 15:25:00,
2013-08-26 09:30:00,70.2,49.6,29.64,SW,217,0.0,1.0,48,0.00,,,0.00,Wunderground v.1.15,2013-08-26 15:30:00,
2013-08-26 09:35:00,70.4,49.8,29.65,NNW,329,0.0,1.0,48,0.00,,,0.00,Wunderground v.1.15,2013-08-26 15:35:00,
2013-08-26 09:40:00,70.8,50.1,29.65,SE,137,0.0,4.0,48,0.00,,,0.00,Wunderground v.1.15,2013-08-26 15:40:00,
2013-08-26 09:50:00,70.7,48.3,29.65,South,170,1.0,1.0,45,0.00,,,0.00,Wunderground v.1.15,2013-08-26 15:50:00,
2013-08-26 09:55:00,70.8,48.4,29.65,SE,139,1.0,1.0,45,0.00,,,0.00,Wunderground v.1.15,2013-08-26 15:55:00,
2013-08-26 10:05:00,71.4,48.3,29.65,South,172,1.0,1.0,44,0.00,,,0.00,Wunderground v.1.15,2013-08-26 16:05:00,
2013-08-26 10:10:00,71.1,48.1,29.65,SE,124,2.0,5.0,44,0.00,,,0.00,Wunderground v.1.15,2013-08-26 16:10:00,
2013-08-26 10:15:00,71.0,48.0,29.65,South,190,3.0,7.0,44,0.00,,,0.00,Wunderground v.1.15,2013-08-26 16:15:00,
2013-08-26 10:20:00,71.1,48.7,29.65,South,174,2.0,2.0,45,0.00,,,0.00,Wunderground v.1.15,2013-08-26 16:20:00,
2013-08-26 10:25:00,71.6,47.9,29.65,SSE,160,1.0,2.0,43,0.00,,,0.00,Wunderground v.1.15,2013-08-26 16:25:00,
2013-08-26 10:30:00,72.2,47.8,29.65,West,268,0.0,2.0,42,0.00,,,0.00,Wunderground v.1.15,2013-08-26 16:30:00,
2013-08-26 10:35:00,72.6,48.8,29.65,SSE,167,1.0,2.0,43,0.00,,,0.00,Wunderground v.1.15,2013-08-26 16:35:00,
2013-08-26 10:40:00,72.7,48.3,29.65,SSE,163,1.0,2.0,42,0.00,,,0.00,Wunderground v.1.15,2013-08-26 16:40:00,
2013-08-26 10:50:00,73.4,48.3,29.65,SSE,162,1.0,1.0,41,0.00,,,0.00,Wunderground v.1.15,2013-08-26 16:50:00,
2013-08-26 10:55:00,73.8,49.3,29.65,WNW,303,1.0,1.0,42,0.00,,,0.00,Wunderground v.1.15,2013-08-26 16:55:00,
2013-08-26 11:00:00,73.8,48.6,29.65,South,180,1.0,1.0,41,0.00,,,0.00,Wunderground v.1.15,2013-08-26 17:00:00,
2013-08-26 11:05:00,73.8,48.6,29.65,South,175,1.0,1.0,41,0.00,,,0.00,Wunderground v.1.15,2013-08-26 17:05:00,
2013-08-26 11:15:00,74.3,49.1,29.64,ENE,71,0.0,1.0,41,0.00,,,0.00,Wunderground v.1.15,2013-08-26 17:15:00,
2013-08-26 11:20:00,74.4,49.8,29.64,NNE,24,1.0,1.0,42,0.00,,,0.00,Wunderground v.1.15,2013-08-26 17:20:00,
2013-08-26 11:25:00,74.2,49.6,29.64,SW,215,2.0,2.0,42,0.00,,,0.00,Wunderground v.1.15,2013-08-26 17:25:00,
2013-08-26 11:30:00,74.6,48.7,29.64,West,271,2.0,2.0,40,0.00,,,0.00,Wunderground v.1.15,2013-08-26 17:30:00,
2013-08-26 11:35:00,75.1,49.1,29.63,SW,217,1.0,2.0,40,0.00,,,0.00,Wunderground v.1.15,2013-08-26 17:35:00,
2013-08-26 11:40:00,75.4,48.7,29.63,SE,146,1.0,2.0,39,0.00,,,0.00,Wunderground v.1.15,2013-08-26 17:40:00,
2013-08-26 11:50:00,75.3,48.6,29.63,SSE,160,2.0,6.0,39,0.00,,,0.00,Wunderground v.1.15,2013-08-26 17:50:00,
2013-08-26 11:55:00,75.4,48.7,29.63,SSE,160,2.0,6.0,39,0.00,,,0.00,Wunderground v.1.15,2013-08-26 17:55:00,
2013-08-26 12:00:00,75.3,49.3,29.63,West,264,2.0,4.0,40,0.00,,,0.00,Wunderground v.1.15,2013-08-26 18:00:00,
2013-08-26 12:05:00,75.4,48.7,29.63,SSE,168,1.0,5.0,39,0.00,,,0.00,Wunderground v.1.15,2013-08-26 18:05:00,
2013-08-26 12:15:00,75.9,48.5,29.62,ESE,117,1.0,2.0,38,0.00,,,0.00,Wunderground v.1.15,2013-08-26 18:15:00,
2013-08-26 12:20:00,76.4,48.9,29.62,SE,134,1.0,1.0,38,0.00,,,0.00,Wunderground v.1.15,2013-08-26 18:20:00,
2013-08-26 12:25:00,76.3,48.8,29.62,West,270,1.0,1.0,38,0.00,,,0.00,Wunderground v.1.15,2013-08-26 18:25:00,
2013-08-26 12:30:00,76.3,48.8,29.61,WSW,258,1.0,1.0,38,0.00,,,0.00,Wunderground v.1.15,2013-08-26 18:30:00,
2013-08-26 12:40:00,77.2,48.9,29.61,SE,129,1.0,1.0,37,0.00,,,0.00,Wunderground v.1.15,2013-08-26 18:40:00,
2013-08-26 12:45:00,77.3,48.3,29.60,SE,146,3.0,3.0,36,0.00,,,0.00,Wunderground v.1.15,2013-08-26 18:45:00,
2013-08-26 12:50:00,77.3,48.3,29.60,SSE,157,3.0,3.0,36,0.00,,,0.00,Wunderground v.1.15,2013-08-26 18:50:00,
2013-08-26 12:55:00,77.2,48.9,29.61,SE,135,2.0,3.0,37,0.00,,,0.00,Wunderground v.1.15,2013-08-26 18:55:00,
2013-08-26 13:05:00,76.6,48.4,29.60,North,360,0.0,1.0,37,0.00,,,0.00,Wunderground v.1.15,2013-08-26 19:05:00,
2013-08-26 13:10:00,76.8,47.8,29.60,NNW,329,0.0,1.0,36,0.00,,,0.00,Wunderground v.1.15,2013-08-26 19:10:00,
2013-08-26 13:15:00,76.8,47.8,29.59,NW,325,1.0,1.0,36,0.00,,,0.00,Wunderground v.1.15,2013-08-26 19:15:00,
2013-08-26 13:20:00,77.2,48.9,29.59,NW,321,1.0,2.0,37,0.00,,,0.00,Wunderground v.1.15,2013-08-26 19:20:00,
2013-08-26 13:25:00,77.8,48.7,29.59,NNE,28,2.0,2.0,36,0.00,,,0.00,Wunderground v.1.15,2013-08-26 19:25:00,
2013-08-26 13:30:00,78.5,47.8,29.59,NNE,13,1.0,1.0,34,0.00,,,0.00,Wunderground v.1.15,2013-08-26 19:30:00,
2013-08-26 13:35:00,78.9,48.9,29.59,West,269,1.0,1.0,35,0.00,,,0.00,Wunderground v.1.15,2013-08-26 19:35:00,
2013-08-26 13:40:00,78.0,48.1,29.59,NW,315,1.0,6.0,35,0.00,,,0.00,Wunderground v.1.15,2013-08-26 19:40:00,
2013-08-26 13:45:00,77.8,48.7,29.59,WNW,294,3.0,6.0,36,0.00,,,0.00,Wunderground v.1.15,2013-08-26 19:45:00,
2013-08-26 13:50:00,77.8,47.2,29.58,SW,226,3.0,4.0,34,0.00,,,0.00,Wunderground v.1.15,2013-08-26 19:50:00,
2013-08-26 13:55:00,77.9,47.3,29.59,SSW,205,2.0,4.0,34,0.00,,,0.00,Wunderground v.1.15,2013-08-26 19:55:00,
2013-08-26 14:00:00,78.2,47.5,29.59,SW,220,2.0,2.0,34,0.00,,,0.00,Wunderground v.1.15,2013-08-26 20:00:00,
2013-08-26 14:10:00,78.6,46.3,29.58,ENE,63,1.0,1.0,32,0.00,,,0.00,Wunderground v.1.15,2013-08-26 20:10:00,
2013-08-26 14:15:00,78.8,48.1,29.58,West,268,1.0,3.0,34,0.00,,,0.00,Wunderground v.1.15,2013-08-26 20:15:00,
2013-08-26 14:20:00,78.3,47.6,29.58,East,96,2.0,2.0,34,0.00,,,0.00,Wunderground v.1.15,2013-08-26 20:20:00,
2013-08-26 14:25:00,78.3,48.4,29.58,South,179,2.0,5.0,35,0.00,,,0.00,Wunderground v.1.15,2013-08-26 20:25:00,
2013-08-26 14:30:00,78.5,48.6,29.58,East,84,2.0,2.0,35,0.00,,,0.00,Wunderground v.1.15,2013-08-26 20:30:00,
2013-08-26 14:35:00,78.5,47.8,29.58,South,177,2.0,5.0,34,0.00,,,0.00,Wunderground v.1.15,2013-08-26 20:35:00,
2013-08-26 14:40:00,78.4,48.5,29.58,SE,137,2.0,5.0,35,0.00,,,0.00,Wunderground v.1.15,2013-08-26 20:40:00,
2013-08-26 14:50:00,78.6,48.7,29.58,SSE,159,2.0,2.0,35,0.00,,,0.00,Wunderground v.1.15,2013-08-26 20:50:00,
2013-08-26 14:55:00,78.0,47.4,29.57,SSW,209,3.0,3.0,34,0.00,,,0.00,Wunderground v.1.15,2013-08-26 20:55:00,
2013-08-26 15:00:00,78.4,47.7,29.57,NNE,27,2.0,2.0,34,0.00,,,0.00,Wunderground v.1.15,2013-08-26 21:00:00,
2013-08-26 15:05:00,79.1,47.5,29.57,SSW,198,1.0,4.0,33,0.00,,,0.00,Wunderground v.1.15,2013-08-26 21:05:00,
2013-08-26 15:10:00,79.1,47.5,29.56,South,178,2.0,2.0,33,0.00,,,0.00,Wunderground v.1.15,2013-08-26 21:10:00,
2013-08-26 15:20:00,79.0,45.8,29.56,SSE,160,1.0,2.0,31,0.00,,,0.00,Wunderground v.1.15,2013-08-26 21:20:00,
2013-08-26 15:25:00,78.9,45.7,29.56,South,170,1.0,2.0,31,0.00,,,0.00,Wunderground v.1.15,2013-08-26 21:25:00,
2013-08-26 15:30:00,79.0,46.6,29.55,ESE,119,2.0,2.0,32,0.00,,,0.00,Wunderground v.1.15,2013-08-26 21:30:00,
2013-08-26 15:35:00,79.3,45.2,29.56,SE,136,2.0,2.0,30,0.00,,,0.00,Wunderground v.1.15,2013-08-26 21:35:00,
2013-08-26 15:40:00,79.3,45.2,29.55,West,279,1.0,1.0,30,0.00,,,0.00,Wunderground v.1.15,2013-08-26 21:40:00,
2013-08-26 15:45:00,79.6,46.3,29.55,SE,136,1.0,1.0,31,0.00,,,0.00,Wunderground v.1.15,2013-08-26 21:45:00,
2013-08-26 15:50:00,79.5,45.3,29.55,SSE,157,2.0,2.0,30,0.00,,,0.00,Wunderground v.1.15,2013-08-26 21:50:00,
2013-08-26 15:55:00,79.2,45.1,29.55,SE,142,2.0,2.0,30,0.00,,,0.00,Wunderground v.1.15,2013-08-26 21:55:00,
2013-08-26 16:05:00,77.5,45.3,29.55,SW,214,1.0,1.0,32,0.00,,,0.00,Wunderground v.1.15,2013-08-26 22:05:00,
2013-08-26 16:15:00,76.0,45.6,29.55,SSE,153,1.0,1.0,34,0.00,,,0.00,Wunderground v.1.15,2013-08-26 22:15:00,
2013-08-26 16:25:00,75.3,45.7,29.54,SSE,160,0.0,1.0,35,0.00,,,0.00,Wunderground v.1.15,2013-08-26 22:25:00,
2013-08-26 16:30:00,75.6,45.2,29.54,SE,142,0.0,6.0,34,0.00,,,0.00,Wunderground v.1.15,2013-08-26 22:30:00,
2013-08-26 16:35:00,76.6,44.5,29.54,West,279,1.0,1.0,32,0.00,,,0.00,Wunderground v.1.15,2013-08-26 22:35:00,
2013-08-26 16:45:00,77.9,44.8,29.54,SSE,166,1.0,1.0,31,0.00,,,0.00,Wunderground v.1.15,2013-08-26 22:45:00,
2013-08-26 16:50:00,78.2,46.7,29.54,SSE,150,2.0,2.0,33,0.00,,,0.00,Wunderground v.1.15,2013-08-26 22:50:00,
2013-08-26 16:55:00,78.6,47.1,29.54,West,275,1.0,3.0,33,0.00,,,0.00,Wunderground v.1.15,2013-08-26 22:55:00,
2013-08-26 17:00:00,78.9,46.5,29.54,SSE,150,0.0,1.0,32,0.00,,,0.00,Wunderground v.1.15,2013-08-26 23:00:00,
2013-08-26 17:05:00,78.9,46.5,29.54,North,350,1.0,1.0,32,0.00,,,0.00,Wunderground v.1.15,2013-08-26 23:05:00,
2013-08-26 17:15:00,78.5,46.2,29.53,SW,228,1.0,4.0,32,0.00,,,0.00,Wunderground v.1.15,2013-08-26 23:15:00,
2013-08-26 17:20:00,78.0,44.9,29.53,SSW,196,2.0,7.0,31,0.00,,,0.00,Wunderground v.1.15,2013-08-26 23:20:00,
2013-08-26 17:25:00,77.5,46.1,29.53,SE,136,3.0,7.0,33,0.00,,,0.00,Wunderground v.1.15,2013-08-26 23:25:00,
2013-08-26 17:30:00,77.3,45.9,29.53,SSE,161,2.0,5.0,33,0.00,,,0.00,Wunderground v.1.15,2013-08-26 23:30:00,
2013-08-26 17:40:00,77.2,44.2,29.52,SSE,161,1.0,1.0,31,0.00,,,0.00,Wunderground v.1.15,2013-08-26 23:40:00,
2013-08-26 17:45:00,77.2,45.0,29.52,South,178,0.0,1.0,32,0.00,,,0.00,Wunderground v.1.15,2013-08-26 23:45:00,
2013-08-26 17:50:00,76.8,44.7,29.52,SSE,148,1.0,1.0,32,0.00,,,0.00,Wunderground v.1.15,2013-08-26 23:50:00,
2013-08-26 17:55:00,76.5,44.4,29.52,South,178,1.0,1.0,32,0.00,,,0.00,Wunderground v.1.15,2013-08-26 23:55:00,
2013-08-26 18:00:00,76.3,43.4,29.52,SSE,164,0.0,6.0,31,0.00,,,0.00,Wunderground v.1.15,2013-08-27 00:00:00,
2013-08-26 18:05:00,76.0,44.0,29.52,SSE,164,1.0,6.0,32,0.00,,,0.00,Wunderground v.1.15,2013-08-27 00:05:00,
2013-08-26 18:10:00,75.6,43.7,29.52,SSE,163,1.0,1.0,32,0.00,,,0.00,Wunderground v.1.15,2013-08-27 00:10:00,
2013-08-26 18:20:00,74.9,43.8,29.51,SSE,161,0.0,1.0,33,0.00,,,0.00,Wunderground v.1.15,2013-08-27 00:20:00,
2013-08-26 18:25:00,74.6,44.4,29.51,SW,217,0.0,1.0,34,0.00,,,0.00,Wunderground v.1.15,2013-08-27 00:25:00,
2013-08-26 18:30:00,74.4,45.0,29.51,SE,146,0.0,1.0,35,0.00,,,0.00,Wunderground v.1.15,2013-08-27 00:30:00,
2013-08-26 18:35:00,74.0,46.1,29.51,SE,146,0.0,1.0,37,0.00,,,0.00,Wunderground v.1.15,2013-08-27 00:35:00,
2013-08-26 18:45:00,73.3,45.4,29.51,SE,143,0.0,1.0,37,0.00,,,0.00,Wunderground v.1.15,2013-08-27 00:45:00,
2013-08-26 18:50:00,73.0,45.2,29.52,SE,143,0.0,1.0,37,0.00,,,0.00,Wunderground v.1.15,2013-08-27 00:50:00,
2013-08-26 19:00:00,72.2,45.9,29.52,SE,143,0.0,1.0,39,0.00,,,0.00,Wunderground v.1.15,2013-08-27 01:00:00,
2013-08-26 19:05:00,71.9,44.2,29.51,SE,144,0.0,1.0,37,0.00,,,0.00,Wunderground v.1.15,2013-08-27 01:05:00,
2013-08-26 19:10:00,71.5,45.2,29.52,SE,144,0.0,1.0,39,0.00,,,0.00,Wunderground v.1.15,2013-08-27 01:10:00,
2013-08-26 19:15:00,71.0,45.5,29.52,SE,144,0.0,1.0,40,0.00,,,0.00,Wunderground v.1.15,2013-08-27 01:15:00,
2013-08-26 19:20:00,70.4,45.6,29.52,SE,144,0.0,1.0,41,0.00,,,0.00,Wunderground v.1.15,2013-08-27 01:20:00,
2013-08-26 19:25:00,69.7,45.6,29.52,SE,144,0.0,1.0,42,0.00,,,0.00,Wunderground v.1.15,2013-08-27 01:25:00,
2013-08-26 19:30:00,68.7,45.9,29.52,SE,144,0.0,1.0,44,0.00,,,0.00,Wunderground v.1.15,2013-08-27 01:30:00,
2013-08-26 19:35:00,67.7,46.7,29.52,SE,143,0.0,1.0,47,0.00,,,0.00,Wunderground v.1.15,2013-08-27 01:35:00,
2013-08-26 19:40:00,67.0,47.2,29.52,SE,144,0.0,1.0,49,0.00,,,0.00,Wunderground v.1.15,2013-08-27 01:40:00,
2013-08-26 19:45:00,66.1,46.9,29.52,SE,144,0.0,1.0,50,0.00,,,0.00,Wunderground v.1.15,2013-08-27 01:45:00,
2013-08-26 19:55:00,65.0,45.9,29.52,SE,144,0.0,1.0,50,0.00,,,0.00,Wunderground v.1.15,2013-08-27 01:55:00,
2013-08-26 20:00:00,64.6,46.6,29.52,SE,144,0.0,1.0,52,0.00,,,0.00,Wunderground v.1.15,2013-08-27 02:00:00,
2013-08-26 20:05:00,64.2,46.2,29.52,SE,143,0.0,1.0,52,0.00,,,0.00,Wunderground v.1.15,2013-08-27 02:05:00,
2013-08-26 20:10:00,64.1,46.6,29.52,SE,144,0.0,1.0,53,0.00,,,0.00,Wunderground v.1.15,2013-08-27 02:10:00,
2013-08-26 20:20:00,63.4,46.0,29.52,SE,144,0.0,1.0,53,0.00,,,0.00,Wunderground v.1.15,2013-08-27 02:20:00,
2013-08-26 20:25:00,63.1,45.2,29.52,SE,144,0.0,1.0,52,0.00,,,0.00,Wunderground v.1.15,2013-08-27 02:25:00,
2013-08-26 20:30:00,62.8,45.4,29.52,SE,144,0.0,1.0,53,0.00,,,0.00,Wunderground v.1.15,2013-08-27 02:30:00,
2013-08-26 20:40:00,62.2,45.8,29.53,SE,144,0.0,1.0,55,0.00,,,0.00,Wunderground v.1.15,2013-08-27 02:40:00,
2013-08-26 20:45:00,61.9,46.0,29.53,SE,144,0.0,1.0,56,0.00,,,0.00,Wunderground v.1.15,2013-08-27 02:45:00,
2013-08-26 20:55:00,61.4,45.6,29.53,SE,144,0.0,1.0,56,0.00,,,0.00,Wunderground v.1.15,2013-08-27 02:55:00,
2013-08-26 21:05:00,60.8,44.5,29.53,SE,144,0.0,1.0,55,0.00,,,0.00,Wunderground v.1.15,2013-08-27 03:05:00,
2013-08-26 21:10:00,60.8,45.5,29.53,SE,144,0.0,1.0,57,0.00,,,0.00,Wunderground v.1.15,2013-08-27 03:10:00,
2013-08-26 21:15:00,60.7,44.9,29.53,SE,144,0.0,1.0,56,0.00,,,0.00,Wunderground v.1.15,2013-08-27 03:15:00,
2013-08-26 21:20:00,60.7,44.9,29.54,SE,144,0.0,1.0,56,0.00,,,0.00,Wunderground v.1.15,2013-08-27 03:20:00,
2013-08-26 21:25:00,60.3,45.9,29.54,SE,144,0.0,1.0,59,0.00,,,0.00,Wunderground v.1.15,2013-08-27 03:25:00,
2013-08-26 21:30:00,59.6,45.2,29.54,SE,144,0.0,1.0,59,0.00,,,0.00,Wunderground v.1.15,2013-08-27 03:30:00,
2013-08-26 21:45:00,58.2,44.8,29.54,SE,144,0.0,1.0,61,0.00,,,0.00,Wunderground v.1.15,2013-08-27 03:45:00,
2013-08-26 21:50:00,58.0,45.5,29.54,SE,144,0.0,1.0,63,0.00,,,0.00,Wunderground v.1.15,2013-08-27 03:50:00,
2013-08-26 21:55:00,57.9,45.0,29.54,SE,144,0.0,1.0,62,0.00,,,0.00,Wunderground v.1.15,2013-08-27 03:55:00,
2013-08-26 22:00:00,57.8,45.3,29.54,SE,144,0.0,1.0,63,0.00,,,0.00,Wunderground v.1.15,2013-08-27 04:00:00,
2013-08-26 22:05:00,57.7,46.4,29.54,SE,144,0.0,1.0,66,0.00,,,0.00,Wunderground v.1.15,2013-08-27 04:05:00,
2013-08-26 22:10:00,57.4,45.3,29.54,SE,144,0.0,1.0,64,0.00,,,0.00,Wunderground v.1.15,2013-08-27 04:10:00,
2013-08-26 22:15:00,57.2,45.5,29.54,SE,144,0.0,1.0,65,0.00,,,0.00,Wunderground v.1.15,2013-08-27 04:15:00,
2013-08-26 22:20:00,57.2,45.9,29.54,SE,144,0.0,1.0,66,0.00,,,0.00,Wunderground v.1.15,2013-08-27 04:20:00,
2013-08-26 22:25:00,57.0,45.7,29.54,SE,144,0.0,1.0,66,0.00,,,0.00,Wunderground v.1.15,2013-08-27 04:25:00,
2013-08-26 22:30:00,56.9,46.1,29.54,SE,144,0.0,1.0,67,0.00,,,0.00,Wunderground v.1.15,2013-08-27 04:30:00,
2013-08-26 22:35:00,56.9,45.7,29.55,SE,144,0.0,1.0,66,0.00,,,0.00,Wunderground v.1.15,2013-08-27 04:35:00,
2013-08-26 22:45:00,56.8,46.0,29.55,SE,144,0.0,1.0,67,0.00,,,0.00,Wunderground v.1.15,2013-08-27 04:45:00,
2013-08-26 22:50:00,56.8,46.0,29.55,SE,144,0.0,1.0,67,0.00,,,0.00,Wunderground v.1.15,2013-08-27 04:50:00,
2013-08-26 23:00:00,57.0,46.5,29.55,SE,144,0.0,1.0,68,0.00,,,0.00,Wunderground v.1.15,2013-08-27 05:00:00,
2013-08-26 23:05:00,56.8,46.3,29.55,SE,144,0.0,1.0,68,0.00,,,0.00,Wunderground v.1.15,2013-08-27 05:05:00,
2013-08-26 23:10:00,56.7,46.6,29.55,SE,144,0.0,1.0,69,0.00,,,0.00,Wunderground v.1.15,2013-08-27 05:10:00,
2013-08-26 23:15:00,56.7,47.0,29.55,SE,144,0.0,1.0,70,0.00,,,0.00,Wunderground v.1.15,2013-08-27 05:15:00,
2013-08-26 23:20:00,56.8,47.1,29.55,SE,144,0.0,1.0,70,0.00,,,0.00,Wunderground v.1.15,2013-08-27 05:20:00,
2013-08-26 23:25:00,57.2,47.9,29.55,SE,144,0.0,1.0,71,0.00,,,0.00,Wunderground v.1.15,2013-08-27 05:25:00,
2013-08-26 23:30:00,57.2,47.5,29.56,SE,144,0.0,1.0,70,0.00,,,0.00,Wunderground v.1.15,2013-08-27 05:30:00,
2013-08-26 23:35:00,57.3,48.0,29.55,SE,144,0.0,1.0,71,0.00,,,0.00,Wunderground v.1.15,2013-08-27 05:35:00,
2013-08-26 23:40:00,57.4,48.4,29.55,SE,144,0.0,1.0,72,0.00,,,0.00,Wunderground v.1.15,2013-08-27 05:40:00,
2013-08-26 23:45:00,57.5,48.9,29.55,SE,144,0.0,1.0,73,0.00,,,0.00,Wunderground v.1.15,2013-08-27 05:45:00,
2013-08-26 23:50:00,57.7,49.1,29.55,SE,144,0.0,1.0,73,0.00,,,0.00,Wunderground v.1.15,2013-08-27 05:50:00,
2013-08-26 23:55:00,58.1,49.5,29.55,SE,144,0.0,1.0,73,0.00,,,0.00,Wunderground v.1.15,2013-08-27 05:55:00,